Five Points, New Mexico
Current Conditions -  °F | °C
As of 7:48 PM on Wednesday 22 Oct 2014 (Local Time) from KAEG Reporting Station
Few Clouds Few Clouds  
Wind Chill: 59°   Ceiling: Unl
Heat Index: 59°   Visibility: 10mi
Dew Point: 43°   Wind: 8mph
Humidity: 55%   Direction: 210°SSW
Pressure: 30.18"   Gusts: NA
Location:  35.1341°N, 106.888°W
Report Text: KAEG 230148Z 21007KT 10SM FEW090 15/06 A3018
Loading
Personal Weather Stations






























Interactive Weather Map
Tropical Storm Tracking
New forecast layout! Learn more

10-Day Weather Forecast

Advertisements
Track Severe Weather on mobile